KBWD/BWD METAR and TAF weather

Enter ICAO airport designator
Station Type Date Time Source
KBWD METAR 2018/07/21 11:35 UTC NOAA

KBWD 211135Z AUTO 00000KT 10SM BKN045 22/14 A3001 RMK AO2


Station Type Date Time Source
KBWD Decoded METAR 2018/07/21 11:35 UTC NOAA

Brownwood, Brownwood Regional Airport, TX, United States (KBWD) 31-48N 098-57W
Jul 21, 2018 - 07:35 AM EDT / 2018.07.21 1135 UTC
Wind: Calm:0
Visibility: 10 mile(s):0
Sky conditions: mostly cloudy
Temperature: 71 F (22 C)
Dew Point: 57 F (14 C)
Relative Humidity: 60%
Pressure (altimeter): 30.01 in. Hg (1016 hPa)
ob: KBWD 211135Z AUTO 00000KT 10SM BKN045 22/14 A3001 RMK AO2
cycle: 11

Station Type Date Time Source
KBWD TAF UTC NOAA

Error!


Example: see airport list